createdAt,value
2023-05-20T00:01:50.551Z,15.20
2023-05-20T00:04:17.793Z,15.10
2023-05-20T00:06:45.358Z,15.10
2023-05-20T00:09:12.528Z,15.10
2023-05-20T00:11:39.630Z,15.10
2023-05-20T00:14:06.775Z,15.00
2023-05-20T00:16:34.078Z,15.00
2023-05-20T00:19:01.294Z,15.00
2023-05-20T00:21:28.411Z,15.00
2023-05-20T00:23:56.523Z,15.00
2023-05-20T00:26:23.652Z,14.90
2023-05-20T00:28:50.938Z,14.90
2023-05-20T00:31:18.060Z,14.90
2023-05-20T00:33:45.212Z,14.90
2023-05-20T00:36:12.340Z,14.90
2023-05-20T00:38:39.621Z,14.90
2023-05-20T00:41:06.774Z,14.90
2023-05-20T00:43:33.895Z,14.90
2023-05-20T00:46:01.252Z,14.90
2023-05-20T00:48:33.601Z,14.80
2023-05-20T00:51:01.335Z,14.80
2023-05-20T00:53:28.556Z,14.80
2023-05-20T00:55:55.682Z,14.90
2023-05-20T00:58:22.686Z,14.80
2023-05-20T01:00:49.716Z,14.80
2023-05-20T01:03:17.547Z,14.80
2023-05-20T01:05:44.728Z,14.70
2023-05-20T01:08:11.937Z,14.70
2023-05-20T01:10:42.761Z,14.60
2023-05-20T01:13:11.674Z,14.50
2023-05-20T01:15:39.279Z,14.50
2023-05-20T01:18:06.537Z,14.50
2023-05-20T01:20:33.742Z,14.50
2023-05-20T01:23:00.906Z,14.50
2023-05-20T01:25:27.996Z,14.50
2023-05-20T01:27:56.136Z,14.60
2023-05-20T01:30:23.462Z,14.60
2023-05-20T01:32:55.800Z,14.50
2023-05-20T01:35:23.055Z,14.50
2023-05-20T01:37:50.171Z,14.50
2023-05-20T01:40:17.445Z,14.60
2023-05-20T01:42:45.672Z,14.60
2023-05-20T01:45:12.841Z,14.50
2023-05-20T01:47:39.983Z,14.50
2023-05-20T01:50:10.907Z,14.50
2023-05-20T01:52:38.173Z,14.50
2023-05-20T01:55:05.638Z,14.40
2023-05-20T01:57:32.918Z,14.40
2023-05-20T02:00:00.065Z,14.40
2023-05-20T02:02:27.338Z,14.40
2023-05-20T02:04:54.636Z,14.40
2023-05-20T02:07:21.788Z,14.30
2023-05-20T02:09:48.918Z,14.30
2023-05-20T02:12:19.003Z,14.20
2023-05-20T02:14:46.907Z,14.10
2023-05-20T02:17:17.462Z,14.10
2023-05-20T02:19:44.802Z,14.00
2023-05-20T02:22:12.027Z,14.00
2023-05-20T02:24:39.302Z,14.00
2023-05-20T02:27:07.094Z,14.00
2023-05-20T02:29:34.159Z,14.00
2023-05-20T02:32:01.334Z,14.00
2023-05-20T02:34:28.642Z,13.90
2023-05-20T02:36:56.693Z,13.90
2023-05-20T02:39:23.850Z,13.90
2023-05-20T02:41:50.948Z,13.90
2023-05-20T02:44:18.263Z,14.00
2023-05-20T02:46:45.319Z,13.90
2023-05-20T02:49:12.393Z,13.90
2023-05-20T02:51:41.136Z,13.90
2023-05-20T02:54:08.280Z,13.90
2023-05-20T02:56:35.426Z,13.90
2023-05-20T02:59:03.709Z,14.00
2023-05-20T03:01:30.805Z,14.00
2023-05-20T03:03:57.934Z,14.00
2023-05-20T03:06:25.050Z,14.10
2023-05-20T03:08:52.208Z,14.10
2023-05-20T03:11:19.291Z,14.10
2023-05-20T03:13:46.382Z,14.10
2023-05-20T03:16:13.732Z,14.10
2023-05-20T03:18:40.914Z,14.00
2023-05-20T03:21:08.818Z,14.00
2023-05-20T03:23:36.084Z,14.00
2023-05-20T03:26:03.511Z,13.90
2023-05-20T03:28:30.507Z,13.90
2023-05-20T03:30:57.545Z,13.90
2023-05-20T03:33:26.427Z,14.00
2023-05-20T03:35:53.541Z,14.00
2023-05-20T03:38:20.804Z,14.10
2023-05-20T03:40:47.825Z,14.10
2023-05-20T03:43:14.900Z,14.10
2023-05-20T03:45:42.079Z,14.20
2023-05-20T03:48:09.185Z,14.20
2023-05-20T03:50:36.364Z,14.20
2023-05-20T03:53:03.403Z,14.20
2023-05-20T03:55:30.473Z,14.20
2023-05-20T03:57:57.605Z,14.20
2023-05-20T04:00:24.735Z,14.20
2023-05-20T04:02:51.988Z,14.20
2023-05-20T04:05:19.607Z,14.30
2023-05-20T04:07:47.065Z,14.30
2023-05-20T04:10:14.161Z,14.40
2023-05-20T04:12:41.598Z,14.30
2023-05-20T04:15:09.713Z,14.30
2023-05-20T04:17:38.527Z,14.40
2023-05-20T04:20:07.507Z,14.30
2023-05-20T04:22:35.008Z,14.40
2023-05-20T04:25:03.873Z,14.40
2023-05-20T04:27:31.594Z,14.40
2023-05-20T04:29:59.029Z,14.40
2023-05-20T04:32:27.157Z,14.30
2023-05-20T04:34:56.314Z,14.30
2023-05-20T04:37:23.388Z,14.40
2023-05-20T04:39:51.274Z,14.40
2023-05-20T04:42:19.339Z,14.40
2023-05-20T04:44:46.795Z,14.50
2023-05-20T04:47:14.222Z,14.50
2023-05-20T04:49:41.581Z,14.60
2023-05-20T04:52:08.606Z,14.50
2023-05-20T04:54:35.750Z,14.50
2023-05-20T04:57:03.110Z,14.50
2023-05-20T04:59:30.156Z,14.60
2023-05-20T05:01:57.348Z,14.80
2023-05-20T05:04:24.409Z,14.90
2023-05-20T05:06:51.567Z,15.00
2023-05-20T05:09:18.701Z,15.00
2023-05-20T05:11:45.793Z,15.10
2023-05-20T05:14:12.860Z,15.10
2023-05-20T05:16:40.048Z,15.20
2023-05-20T05:19:07.543Z,15.30
2023-05-20T05:21:34.666Z,15.40
2023-05-20T05:24:01.761Z,15.60
2023-05-20T05:26:28.846Z,15.80
2023-05-20T05:28:57.495Z,16.00
2023-05-20T05:31:24.595Z,16.20
2023-05-20T05:33:51.653Z,16.40
2023-05-20T05:36:18.767Z,16.50
2023-05-20T05:38:45.851Z,16.60
2023-05-20T05:41:12.921Z,16.70
2023-05-20T05:43:39.922Z,16.80
2023-05-20T05:46:06.973Z,16.80
2023-05-20T05:48:34.085Z,16.80
2023-05-20T05:51:01.203Z,16.90
2023-05-20T05:53:28.322Z,17.00
2023-05-20T05:55:55.441Z,17.10
2023-05-20T05:58:22.460Z,17.30
2023-05-20T06:00:52.263Z,17.40
2023-05-20T06:03:19.431Z,17.50
2023-05-20T06:05:47.542Z,17.70
2023-05-20T06:08:14.727Z,17.50
2023-05-20T06:10:41.790Z,17.60
2023-05-20T06:13:08.809Z,17.60
2023-05-20T06:15:36.774Z,17.70
2023-05-20T06:18:04.240Z,17.90
2023-05-20T06:20:31.320Z,18.00
2023-05-20T06:22:58.412Z,18.10
2023-05-20T06:25:25.892Z,18.10
2023-05-20T06:27:53.081Z,18.20
2023-05-20T06:30:20.260Z,18.30
2023-05-20T06:32:47.514Z,18.40
2023-05-20T06:35:14.737Z,18.50
2023-05-20T06:37:41.904Z,18.60
2023-05-20T06:40:09.735Z,18.50
2023-05-20T06:42:36.778Z,18.40
2023-05-20T06:45:04.745Z,18.40
2023-05-20T06:47:31.851Z,18.50
2023-05-20T06:49:58.991Z,18.60
2023-05-20T06:52:26.104Z,18.80
2023-05-20T06:54:53.347Z,18.80
2023-05-20T06:57:20.459Z,18.90
2023-05-20T06:59:47.536Z,18.80
2023-05-20T07:02:14.825Z,19.00
2023-05-20T07:04:42.117Z,19.20
2023-05-20T07:07:09.265Z,19.20
2023-05-20T07:09:36.472Z,19.30
2023-05-20T07:12:03.901Z,19.40
2023-05-20T07:14:30.984Z,19.60
2023-05-20T07:16:58.186Z,19.80
2023-05-20T07:19:25.448Z,19.90
2023-05-20T07:21:52.716Z,19.80
2023-05-20T07:24:19.756Z,19.90
2023-05-20T07:26:47.178Z,19.90
2023-05-20T07:29:20.456Z,19.70
2023-05-20T07:31:47.794Z,19.40
2023-05-20T07:34:14.934Z,19.30
2023-05-20T07:36:42.133Z,19.40
2023-05-20T07:39:13.520Z,19.40
2023-05-20T07:41:42.306Z,19.70
2023-05-20T07:44:11.560Z,20.00
2023-05-20T07:46:39.045Z,20.30
2023-05-20T07:49:06.466Z,20.60
2023-05-20T07:51:33.576Z,20.80
2023-05-20T07:54:02.371Z,21.10
2023-05-20T07:56:30.321Z,21.30
2023-05-20T07:58:59.842Z,21.50
2023-05-20T08:01:27.962Z,21.70
2023-05-20T08:03:55.668Z,21.50
2023-05-20T08:06:25.220Z,21.20
2023-05-20T08:08:56.308Z,21.00
2023-05-20T08:11:23.422Z,21.10
2023-05-20T08:13:50.971Z,21.40
2023-05-20T08:16:18.308Z,21.60
2023-05-20T08:18:45.954Z,21.80
2023-05-20T08:21:14.234Z,22.00
2023-05-20T08:23:41.575Z,22.00
2023-05-20T08:26:10.780Z,22.20
2023-05-20T08:28:39.703Z,22.20
2023-05-20T08:31:07.068Z,22.40
2023-05-20T08:33:34.246Z,22.70
2023-05-20T08:36:01.317Z,22.60
2023-05-20T08:38:28.490Z,22.50
2023-05-20T08:40:58.667Z,22.30
2023-05-20T08:43:25.870Z,22.30
2023-05-20T08:45:53.159Z,22.40
2023-05-20T08:48:20.897Z,22.60
2023-05-20T08:50:53.193Z,22.90
2023-05-20T08:53:22.886Z,23.10
2023-05-20T08:56:17.012Z,23.50
2023-05-20T08:58:44.402Z,23.90
2023-05-20T09:01:11.533Z,24.20
2023-05-20T09:03:38.781Z,24.40
2023-05-20T09:06:07.601Z,24.70
2023-05-20T09:08:34.989Z,25.00
2023-05-20T09:11:02.088Z,25.10
2023-05-20T09:13:31.093Z,25.10
2023-05-20T09:15:59.787Z,25.30
2023-05-20T09:18:27.360Z,25.40
2023-05-20T09:20:59.109Z,25.50
2023-05-20T09:23:27.827Z,25.70
2023-05-20T09:25:54.831Z,25.90
2023-05-20T09:28:25.539Z,26.20
2023-05-20T09:31:00.161Z,26.40
2023-05-20T09:33:30.623Z,26.60
2023-05-20T09:36:04.901Z,26.80
2023-05-20T09:38:38.240Z,27.00
2023-05-20T09:41:08.413Z,27.30
2023-05-20T09:43:36.593Z,27.30
2023-05-20T09:46:04.875Z,27.50
2023-05-20T09:48:34.019Z,27.60
2023-05-20T09:51:01.630Z,27.60
2023-05-20T09:53:29.111Z,27.80
2023-05-20T09:55:56.674Z,27.90
2023-05-20T09:58:24.511Z,27.80
2023-05-20T10:00:52.181Z,27.50
2023-05-20T10:03:19.402Z,27.20
2023-05-20T10:06:20.545Z,27.20
2023-05-20T10:09:10.408Z,27.10
2023-05-20T10:11:55.059Z,27.30
2023-05-20T10:14:34.635Z,27.40
2023-05-20T10:17:23.853Z,27.30
2023-05-20T10:19:51.526Z,27.30
2023-05-20T10:22:28.556Z,27.40
2023-05-20T10:25:00.270Z,27.30
2023-05-20T10:27:27.619Z,27.10
2023-05-20T10:29:56.684Z,27.00
2023-05-20T10:32:31.910Z,27.10
2023-05-20T10:35:05.161Z,27.20
2023-05-20T10:37:43.389Z,27.30
2023-05-20T10:40:11.805Z,27.40
2023-05-20T10:42:39.165Z,27.30
2023-05-20T10:45:07.647Z,27.30
2023-05-20T10:47:35.229Z,27.30
2023-05-20T10:50:05.011Z,27.20
2023-05-20T10:52:38.295Z,27.20
2023-05-20T10:55:11.937Z,27.00
2023-05-20T10:57:39.449Z,26.60
2023-05-20T11:00:11.014Z,26.80
2023-05-20T11:02:38.380Z,27.20
2023-05-20T11:05:06.677Z,27.50
2023-05-20T11:07:34.345Z,27.80
2023-05-20T11:10:01.564Z,28.00
2023-05-20T11:12:28.742Z,28.30
2023-05-20T11:14:55.934Z,28.40
2023-05-20T11:17:23.119Z,28.60
2023-05-20T11:19:51.186Z,28.80
2023-05-20T11:22:18.376Z,28.90
2023-05-20T11:24:46.740Z,28.90
2023-05-20T11:27:13.830Z,29.00
2023-05-20T11:29:40.948Z,29.00
2023-05-20T11:32:09.600Z,28.70
2023-05-20T11:34:37.517Z,28.60
2023-05-20T11:37:09.219Z,28.60
2023-05-20T11:39:36.961Z,28.60
2023-05-20T11:42:04.197Z,28.90
2023-05-20T11:44:31.393Z,29.10
2023-05-20T11:47:02.232Z,29.20
2023-05-20T11:49:29.639Z,29.10
2023-05-20T11:51:57.321Z,29.10
2023-05-20T11:54:24.834Z,29.20
2023-05-20T11:56:52.295Z,29.00
2023-05-20T11:59:19.318Z,29.00
2023-05-20T12:01:46.712Z,29.10
2023-05-20T12:04:15.132Z,29.30
2023-05-20T12:06:44.525Z,29.30
2023-05-20T12:09:12.173Z,29.30
2023-05-20T12:11:41.427Z,29.30
2023-05-20T12:14:09.122Z,29.20
2023-05-20T12:16:36.976Z,29.10
2023-05-20T12:19:04.566Z,28.90
2023-05-20T12:21:31.966Z,28.80
2023-05-20T12:24:02.487Z,28.70
2023-05-20T12:26:30.066Z,28.70
2023-05-20T12:28:57.622Z,28.70
2023-05-20T12:31:25.876Z,28.80
2023-05-20T12:33:53.357Z,28.90
2023-05-20T12:36:20.795Z,28.90
2023-05-20T12:38:47.972Z,29.00
2023-05-20T12:41:15.046Z,29.10
2023-05-20T12:43:42.093Z,29.00
2023-05-20T12:46:09.152Z,28.80
2023-05-20T12:48:37.119Z,28.60
2023-05-20T12:51:04.509Z,28.50
2023-05-20T12:53:31.660Z,28.50
2023-05-20T12:55:58.710Z,28.40
2023-05-20T12:58:25.903Z,28.30
2023-05-20T13:00:53.018Z,28.40
2023-05-20T13:03:20.221Z,28.40
2023-05-20T13:05:47.358Z,28.40
2023-05-20T13:08:15.153Z,28.30
2023-05-20T13:10:42.630Z,28.20
2023-05-20T13:13:09.723Z,28.10
2023-05-20T13:15:37.007Z,28.00
2023-05-20T13:18:06.620Z,27.90
2023-05-20T13:20:34.524Z,28.10
2023-05-20T13:23:01.996Z,28.30
2023-05-20T13:25:29.425Z,28.50
2023-05-20T13:27:56.514Z,28.50
2023-05-20T13:30:23.677Z,28.50
2023-05-20T13:32:50.738Z,28.50
2023-05-20T13:35:18.492Z,28.50
2023-05-20T13:37:45.640Z,28.50
2023-05-20T13:40:13.222Z,28.30
2023-05-20T13:42:40.428Z,28.10
2023-05-20T13:45:08.166Z,28.10
2023-05-20T13:47:35.398Z,28.20
2023-05-20T13:50:03.405Z,28.20
2023-05-20T13:52:31.291Z,28.30
2023-05-20T13:54:58.318Z,28.20
2023-05-20T13:57:25.626Z,28.20
2023-05-20T13:59:52.802Z,28.10
2023-05-20T14:02:20.141Z,28.00
2023-05-20T14:04:47.394Z,27.90
2023-05-20T14:07:14.566Z,28.00
2023-05-20T14:09:41.710Z,28.10
2023-05-20T14:12:08.896Z,28.10
2023-05-20T14:14:36.015Z,28.00
2023-05-20T14:17:03.220Z,28.00
2023-05-20T14:19:30.464Z,28.10
2023-05-20T14:21:59.262Z,28.00
2023-05-20T14:24:26.388Z,28.00
2023-05-20T14:26:53.645Z,27.90
2023-05-20T14:29:21.151Z,27.70
2023-05-20T14:31:48.374Z,27.60
2023-05-20T14:34:15.410Z,27.40
2023-05-20T14:36:42.574Z,27.30
2023-05-20T14:39:09.917Z,27.20
2023-05-20T14:41:37.001Z,27.30
2023-05-20T14:44:04.088Z,27.30
2023-05-20T14:46:31.392Z,27.30
2023-05-20T14:48:58.622Z,27.20
2023-05-20T14:51:25.837Z,27.30
2023-05-20T14:53:52.876Z,27.20
2023-05-20T14:56:20.006Z,26.80
2023-05-20T14:58:47.075Z,26.60
2023-05-20T15:01:14.277Z,26.50
2023-05-20T15:03:41.668Z,26.50
2023-05-20T15:06:08.871Z,26.60
2023-05-20T15:08:35.998Z,26.70
2023-05-20T15:11:03.147Z,26.70
2023-05-20T15:13:30.204Z,26.70
2023-05-20T15:15:57.227Z,26.60
2023-05-20T15:18:24.365Z,26.60
2023-05-20T15:20:51.594Z,26.40
2023-05-20T15:23:18.926Z,26.30
2023-05-20T15:25:46.214Z,26.30
2023-05-20T15:28:13.632Z,26.20
2023-05-20T15:30:40.889Z,26.10
2023-05-20T15:33:08.173Z,26.00
2023-05-20T15:35:35.285Z,26.00
2023-05-20T15:38:02.506Z,26.00
2023-05-20T15:40:29.574Z,26.00
2023-05-20T15:42:57.326Z,26.00
2023-05-20T15:45:24.581Z,26.10
2023-05-20T15:47:51.950Z,26.10
2023-05-20T15:50:19.220Z,26.10
2023-05-20T15:52:46.364Z,26.10
2023-05-20T15:55:13.650Z,26.10
2023-05-20T15:57:43.829Z,26.10
2023-05-20T16:00:12.026Z,26.10
2023-05-20T16:02:40.549Z,26.10
2023-05-20T16:05:09.187Z,26.10
2023-05-20T16:07:36.468Z,26.00
2023-05-20T16:10:03.804Z,25.90
2023-05-20T16:12:30.919Z,25.90
2023-05-20T16:14:58.078Z,25.90
2023-05-20T16:17:25.367Z,26.00
2023-05-20T16:19:52.492Z,26.00
2023-05-20T16:22:19.577Z,25.90
2023-05-20T16:24:46.744Z,26.00
2023-05-20T16:27:13.874Z,26.00
2023-05-20T16:29:41.318Z,25.90
2023-05-20T16:32:08.550Z,25.80
2023-05-20T16:34:35.986Z,25.80
2023-05-20T16:37:03.105Z,25.70
2023-05-20T16:39:30.178Z,25.50
2023-05-20T16:41:57.318Z,25.50
2023-05-20T16:44:24.472Z,25.50
2023-05-20T16:46:54.056Z,25.40
2023-05-20T16:49:21.827Z,25.40
2023-05-20T16:51:50.048Z,25.40
2023-05-20T16:54:17.149Z,25.30
2023-05-20T16:56:44.264Z,25.20
2023-05-20T16:59:17.389Z,25.10
2023-05-20T17:01:44.661Z,25.10
2023-05-20T17:04:11.970Z,24.90
2023-05-20T17:06:40.169Z,24.80
2023-05-20T17:09:07.639Z,24.70
2023-05-20T17:11:34.995Z,24.60
2023-05-20T17:14:02.130Z,24.50
2023-05-20T17:16:29.422Z,24.40
2023-05-20T17:19:00.660Z,24.30
2023-05-20T17:21:27.762Z,24.30
2023-05-20T17:23:54.940Z,24.20
2023-05-20T17:26:22.573Z,24.10
2023-05-20T17:28:49.872Z,24.10
2023-05-20T17:31:23.329Z,24.00
2023-05-20T17:34:06.952Z,24.00
2023-05-20T17:36:37.305Z,23.90
2023-05-20T17:39:05.098Z,23.80
2023-05-20T17:41:32.268Z,23.80
2023-05-20T17:43:59.757Z,23.80
2023-05-20T17:46:27.046Z,23.80
2023-05-20T17:48:58.623Z,23.70
2023-05-20T17:51:25.979Z,23.60
2023-05-20T17:53:53.144Z,23.50
2023-05-20T17:56:20.307Z,23.50
2023-05-20T17:58:48.353Z,23.40
2023-05-20T18:01:15.672Z,23.40
2023-05-20T18:03:44.122Z,23.40
2023-05-20T18:06:15.710Z,23.30
2023-05-20T18:08:42.925Z,23.30
2023-05-20T18:11:10.520Z,23.30
2023-05-20T18:13:37.695Z,23.30
2023-05-20T18:16:05.206Z,23.20
2023-05-20T18:18:32.461Z,23.20
2023-05-20T18:20:59.609Z,23.10
2023-05-20T18:23:26.730Z,23.10
2023-05-20T18:25:53.903Z,23.00
2023-05-20T18:28:21.079Z,23.00
2023-05-20T18:30:48.205Z,22.90
2023-05-20T18:33:15.388Z,22.90
2023-05-20T18:35:42.501Z,22.90
2023-05-20T18:38:09.621Z,22.90
2023-05-20T18:40:36.986Z,22.80
2023-05-20T18:43:04.176Z,22.80
2023-05-20T18:45:31.290Z,22.70
2023-05-20T18:48:00.104Z,22.70
2023-05-20T18:50:27.444Z,22.60
2023-05-20T18:52:54.513Z,22.60
2023-05-20T18:55:21.560Z,22.70
2023-05-20T18:57:48.676Z,22.70
2023-05-20T19:00:17.403Z,22.60
2023-05-20T19:02:44.649Z,22.60
2023-05-20T19:05:12.372Z,22.60
2023-05-20T19:07:39.563Z,22.50
2023-05-20T19:10:07.347Z,22.50
2023-05-20T19:12:34.425Z,22.40
2023-05-20T19:15:01.729Z,22.40
2023-05-20T19:17:28.914Z,22.30
2023-05-20T19:19:56.062Z,22.30
2023-05-20T19:22:23.088Z,22.20
2023-05-20T19:24:50.161Z,22.20
2023-05-20T19:27:17.343Z,22.20
2023-05-20T19:29:44.402Z,22.10
2023-05-20T19:32:11.501Z,22.10
2023-05-20T19:34:38.636Z,22.00
2023-05-20T19:37:05.893Z,22.10
2023-05-20T19:39:33.034Z,22.00
2023-05-20T19:42:02.447Z,22.00
2023-05-20T19:44:29.606Z,22.00
2023-05-20T19:46:56.685Z,22.00
2023-05-20T19:49:23.913Z,21.90
2023-05-20T19:51:51.187Z,21.90
2023-05-20T19:54:18.224Z,21.80
2023-05-20T19:56:45.330Z,21.80
2023-05-20T19:59:12.699Z,21.70
2023-05-20T20:01:39.777Z,21.60
2023-05-20T20:04:07.039Z,21.60
2023-05-20T20:06:34.305Z,21.50
2023-05-20T20:09:01.611Z,21.60
2023-05-20T20:11:28.737Z,21.50
2023-05-20T20:13:58.581Z,21.50
2023-05-20T20:16:27.082Z,21.40
2023-05-20T20:18:54.650Z,21.40
2023-05-20T20:21:22.072Z,21.30
2023-05-20T20:23:49.183Z,21.40
2023-05-20T20:26:16.370Z,21.40
2023-05-20T20:28:43.584Z,21.40
2023-05-20T20:31:10.755Z,21.30
2023-05-20T20:33:37.842Z,21.30
2023-05-20T20:36:05.180Z,21.30
2023-05-20T20:38:32.497Z,21.20
2023-05-20T20:40:59.916Z,21.20
2023-05-20T20:43:29.016Z,21.20
2023-05-20T20:45:56.876Z,21.20
2023-05-20T20:48:27.040Z,21.20
2023-05-20T20:50:54.426Z,21.20
2023-05-20T20:53:21.894Z,21.10
2023-05-20T20:55:51.490Z,21.20
2023-05-20T20:58:19.089Z,21.10
2023-05-20T21:00:48.778Z,21.00
2023-05-20T21:03:16.271Z,21.00
2023-05-20T21:05:44.589Z,20.90
2023-05-20T21:08:22.348Z,20.80
2023-05-20T21:10:52.532Z,20.80
2023-05-20T21:13:20.339Z,20.80
2023-05-20T21:15:51.227Z,20.70
2023-05-20T21:18:22.108Z,20.70
2023-05-20T21:20:56.186Z,20.60
2023-05-20T21:23:23.552Z,20.60
2023-05-20T21:25:52.845Z,20.50
2023-05-20T21:28:20.234Z,20.50
2023-05-20T21:30:47.639Z,20.40
2023-05-20T21:33:15.254Z,20.30
2023-05-20T21:35:45.498Z,20.30
2023-05-20T21:38:21.502Z,20.20
2023-05-20T21:40:48.894Z,20.10
2023-05-20T21:43:16.169Z,20.10
2023-05-20T21:45:43.699Z,20.00
2023-05-20T21:48:11.690Z,19.90
2023-05-20T21:50:39.035Z,19.80
2023-05-20T21:53:06.122Z,19.70
2023-05-20T21:55:33.512Z,19.70
2023-05-20T21:58:00.844Z,19.60
2023-05-20T22:00:28.703Z,19.60
2023-05-20T22:02:56.077Z,19.50
2023-05-20T22:05:23.618Z,19.40
2023-05-20T22:07:51.814Z,19.40
2023-05-20T22:10:22.523Z,19.40
2023-05-20T22:12:51.086Z,19.40
2023-05-20T22:15:18.586Z,19.30
2023-05-20T22:17:47.674Z,19.20
2023-05-20T22:20:17.956Z,19.20
2023-05-20T22:22:45.059Z,19.20
2023-05-20T22:25:12.781Z,19.20
2023-05-20T22:27:43.117Z,19.20
2023-05-20T22:30:11.926Z,19.20
2023-05-20T22:32:39.464Z,19.20
2023-05-20T22:35:07.487Z,19.10
2023-05-20T22:37:34.953Z,19.00
2023-05-20T22:40:02.198Z,18.90
2023-05-20T22:42:29.544Z,18.90
2023-05-20T22:44:57.091Z,18.80
2023-05-20T22:47:24.389Z,18.70
2023-05-20T22:49:51.460Z,18.70
2023-05-20T22:52:18.944Z,18.70
2023-05-20T22:54:45.987Z,18.60
2023-05-20T22:57:13.063Z,18.60
2023-05-20T22:59:40.557Z,18.60
2023-05-20T23:02:08.309Z,18.60
2023-05-20T23:04:35.483Z,18.60
2023-05-20T23:07:02.616Z,18.60
2023-05-20T23:09:29.649Z,18.50
2023-05-20T23:11:57.465Z,18.40
2023-05-20T23:14:24.625Z,18.40
2023-05-20T23:16:51.955Z,18.40
2023-05-20T23:19:19.213Z,18.30
2023-05-20T23:21:46.571Z,18.30
2023-05-20T23:24:13.952Z,18.30
2023-05-20T23:26:41.290Z,18.20
2023-05-20T23:29:08.673Z,18.20
2023-05-20T23:31:36.155Z,18.20
2023-05-20T23:34:04.131Z,18.10
2023-05-20T23:36:34.592Z,18.00
2023-05-20T23:39:04.455Z,18.00
2023-05-20T23:41:34.076Z,18.00
2023-05-20T23:44:01.925Z,18.00
2023-05-20T23:46:29.113Z,18.00
2023-05-20T23:48:56.198Z,18.00
2023-05-20T23:51:23.498Z,18.00
2023-05-20T23:53:50.892Z,18.10
2023-05-20T23:56:18.051Z,18.10
2023-05-20T23:58:45.128Z,18.10
